Salt Lake City International Airport
KSLC : now visible

Airfield :











YOU CAN JOIN US ON...

 
LOGIN :

Register | Disclaimer

   EN    FR    IT 

 









Legend :    VFR   Marginal VFR   IFR   Intensive IFR   Very Intensive IFR
Visi :
Ceiling :
>= 8 km
>= 3000ft
5 to 8 km
1000 to 3000 ft
1500m to 5 km
500 to 1000 ft
800 to 1500m
200 to 500 ft
< 800m
< 200 ft
Symbols :   Thunderstorms  Fog  Heavy snow  Heavy precipitations  Wind > 20 kt






- Airport Elevation : 4227 ft
- IATA code : SLC


KSLC - Salt Lake City International

CURRENT METAR :
  • 272354Z 02012KT 10SM FEW075 SCT110 BKN150 BKN220 30/04 A2981 RMK AO2 SLP036 VIRGA DSNT SW-NW T03000044 10311 20278 58026

EXPIRED METARs :
  • 272254Z 35010G18KT 10SM FEW080 BKN110 BKN210 30/04 A2985 RMK AO2 SLP046 VIRGA TCU E-S AND DSNT W T03000039
  • 272154Z 33010G15KT 10SM FEW080 SCT100TCU BKN200 31/04 A2988 RMK AO2 SLP054 VIRGA ALQDS TCU OHD AND DSNT ALQDS T03060039

TAF KSLC
Valid from the 28 at 00:00 until the 29 at 06:00 UTC


272335Z 2800/2906 34012G18KT P6SM VCSH SCT070 BKN100
FM280100 34014G24KT P6SM VCSH FEW070 BKN130
FM280700 17008KT P6SM SCT070 BKN100
FM281300 32009KT P6SM VCSH BKN050 OVC100
FM282200 30007KT P6SM FEW060 SCT100
KZLC FIR / North America



MET'MAP, your aeronautical weather chart ! - Copyright ORBIFLY December 2007 - Disclaimer

ORBIFLY MET'MAP TEAM :

Programming & Development : Alexandra Zaïnal
Original concept : Baudouin d'Aumeries
Technical & hardware support : Manuel Goepfert
Assistance : Marc-Olivier Méhu

Contact : metmap@orbifly.com




SOURCES & CREDITS :

   NOAA       Earth
Advisory